Time;durP1;ratioP1;P1;durP2;ratioP2;P2;SDS_P1;SDS_P2;PMS_P1;PMS_P2;Temp;Humidity;BMP_temperature;BMP_pressure;BME280_temperature;BME280_humidity;BME280_pressure;Samples;Min_cycle;Max_cycle;Signal;HPM_P1;HPM_P2
2022/02/27 00:02:30;;;;;;;21.80;13.57;;;;;;;-0.23;73.82;102296.78;8576216;33;20238;-76
2022/02/27 00:07:34;;;;;;;23.67;13.90;;;;;;;-0.39;74.18;102298.59;8575558;33;20502;-76
2022/02/27 00:12:37;;;;;;;22.50;14.30;;;;;;;-0.50;74.95;102300.44;8579910;33;20399;-76
2022/02/27 00:17:42;;;;;;;29.77;14.93;;;;;;;-0.41;75.37;102304.78;8554716;33;20495;-76
2022/02/27 00:22:45;;;;;;;21.73;13.87;;;;;;;-0.35;75.35;102300.38;8575348;33;20194;-74
2022/02/27 00:27:49;;;;;;;23.07;14.33;;;;;;;-0.37;75.06;102298.63;8573099;27;20415;-74
2022/02/27 00:32:57;;;;;;;22.70;13.97;;;;;;;-0.30;75.94;102303.00;8637859;33;20868;-74
2022/02/27 00:38:01;;;;;;;28.70;14.20;;;;;;;-0.32;75.64;102295.06;8615158;33;20525;-73
2022/02/27 00:43:04;;;;;;;22.03;14.30;;;;;;;-0.42;75.78;102293.34;8639216;33;20569;-73
2022/02/27 00:48:08;;;;;;;23.80;14.27;;;;;;;-0.51;75.65;102290.75;8644949;33;20529;-74
2022/02/27 00:53:11;;;;;;;24.73;13.77;;;;;;;-0.53;75.50;102289.88;8643977;33;20426;-74
2022/02/27 00:58:14;;;;;;;24.07;13.67;;;;;;;-0.59;75.91;102289.91;8620704;33;20922;-74
2022/02/27 01:03:19;;;;;;;25.67;14.60;;;;;;;-0.54;75.94;102283.72;8645054;33;20542;-74
2022/02/27 01:08:24;;;;;;;22.67;12.30;;;;;;;-0.71;75.46;102277.66;8644731;33;20143;-74
2022/02/27 01:13:27;;;;;;;26.23;13.20;;;;;;;-0.74;75.68;102280.28;8620076;33;20150;-74
2022/02/27 01:18:31;;;;;;;25.47;13.97;;;;;;;-0.75;75.96;102274.13;8656300;33;20627;-74
2022/02/27 01:23:36;;;;;;;17.47;13.17;;;;;;;-0.80;75.99;102277.66;8666623;33;20434;-74
2022/02/27 01:28:40;;;;;;;23.47;12.93;;;;;;;-0.80;75.79;102278.53;8626976;33;20450;-74
2022/02/27 01:33:44;;;;;;;18.40;11.50;;;;;;;-0.77;76.02;102281.19;8643370;33;20543;-74
2022/02/27 01:38:49;;;;;;;22.60;12.73;;;;;;;-0.73;75.97;102277.66;8656219;33;20470;-74
2022/02/27 01:43:53;;;;;;;16.43;10.30;;;;;;;-0.66;76.18;102277.63;8656038;33;20414;-74
2022/02/27 01:48:57;;;;;;;18.93;10.43;;;;;;;-0.51;76.27;102281.06;8620240;33;20612;-74
2022/02/27 01:54:00;;;;;;;16.30;9.63;;;;;;;-0.40;76.07;102275.75;8643612;33;20422;-74
2022/02/27 01:59:03;;;;;;;15.10;7.80;;;;;;;-0.33;76.20;102280.13;8641090;33;21089;-74
2022/02/27 02:04:09;;;;;;;14.00;7.53;;;;;;;-0.21;76.03;102281.81;8616382;33;20423;-74
2022/02/27 02:09:12;;;;;;;17.50;8.20;;;;;;;-0.18;75.41;102281.78;8617965;33;20418;-74
2022/02/27 02:14:20;;;;;;;12.87;8.07;;;;;;;-0.40;75.30;102275.75;8619869;33;20397;-74
2022/02/27 02:19:28;;;;;;;18.60;7.90;;;;;;;-0.41;75.74;102287.19;8618139;33;20242;-74
2022/02/27 02:24:40;;;;;;;13.83;6.73;;;;;;;-0.27;76.43;102271.28;8640789;33;20567;-74
2022/02/27 02:29:43;;;;;;;10.30;5.93;;;;;;;-0.20;76.17;102272.97;8617119;33;20147;-74
2022/02/27 02:34:49;;;;;;;14.93;8.03;;;;;;;-0.18;75.96;102268.56;8639025;33;20389;-74
2022/02/27 02:39:55;;;;;;;12.80;6.40;;;;;;;-0.30;75.88;102271.31;8616276;33;20413;-74
2022/02/27 02:44:58;;;;;;;13.73;5.83;;;;;;;-0.38;76.35;102262.53;8617029;33;21046;-74
2022/02/27 02:50:01;;;;;;;16.17;5.97;;;;;;;-0.35;76.44;102263.41;8618822;33;20423;-74
2022/02/27 02:55:10;;;;;;;11.57;5.57;;;;;;;-0.35;76.22;102263.41;8613393;33;20942;-74
2022/02/27 03:00:14;;;;;;;13.30;6.13;;;;;;;-0.39;76.20;102258.13;8635345;33;20139;-74
2022/02/27 03:05:17;;;;;;;9.50;5.10;;;;;;;-0.43;76.43;102252.00;8636908;33;20461;-74
2022/02/27 03:10:22;;;;;;;12.67;5.97;;;;;;;-0.37;76.72;102256.38;8636208;33;20456;-74
2022/02/27 03:15:25;;;;;;;11.57;5.37;;;;;;;-0.34;76.50;102262.50;8640638;33;20498;-74
2022/02/27 03:20:29;;;;;;;17.23;5.63;;;;;;;-0.30;76.87;102271.31;8640782;33;20847;-74
2022/02/27 03:25:33;;;;;;;10.00;4.77;;;;;;;-0.29;76.36;102266.00;8641566;33;20843;-74
2022/02/27 03:30:38;;;;;;;12.00;5.33;;;;;;;-0.28;76.23;102269.50;8616029;33;20453;-74
2022/02/27 03:35:41;;;;;;;18.87;6.57;;;;;;;-0.23;76.73;102272.13;8636270;33;20177;-74
2022/02/27 03:40:48;;;;;;;11.00;5.60;;;;;;;-0.31;76.25;102267.75;8634654;33;20420;-74
2022/02/27 03:45:51;;;;;;;14.90;5.27;;;;;;;-0.35;76.04;102278.38;8634077;33;20222;-74
2022/02/27 03:50:54;;;;;;;8.57;5.43;;;;;;;-0.44;76.05;102267.84;8632803;33;20151;-74
2022/02/27 03:55:58;;;;;;;9.17;4.73;;;;;;;-0.43;76.30;102266.97;8633331;33;20203;-74
2022/02/27 04:01:01;;;;;;;12.13;5.27;;;;;;;-0.48;75.94;102266.97;8634067;33;21014;-74
2022/02/27 04:06:05;;;;;;;10.93;5.10;;;;;;;-0.54;76.20;102272.28;8614449;33;20146;-74
2022/02/27 04:11:09;;;;;;;12.57;5.40;;;;;;;-0.57;76.14;102267.03;8643893;33;20148;-74
2022/02/27 04:16:12;;;;;;;9.93;6.23;;;;;;;-0.62;76.21;102266.19;8643148;33;20393;-74
2022/02/27 04:21:16;;;;;;;8.70;5.40;;;;;;;-0.64;76.41;102266.16;8636055;33;20426;-74
2022/02/27 04:26:20;;;;;;;12.13;6.47;;;;;;;-0.64;76.62;102267.94;8634825;33;20201;-74
2022/02/27 04:31:23;;;;;;;14.77;6.13;;;;;;;-0.63;76.42;102264.41;8638573;33;20868;-74
2022/02/27 04:36:26;;;;;;;14.00;7.03;;;;;;;-0.68;76.54;102264.44;8642252;33;20394;-74
2022/02/27 04:41:30;;;;;;;11.20;5.77;;;;;;;-0.79;76.70;102256.56;8641133;33;20430;-74
2022/02/27 04:46:34;;;;;;;10.40;5.60;;;;;;;-0.83;77.24;102253.94;8639349;33;20425;-74
2022/02/27 04:51:37;;;;;;;12.90;5.73;;;;;;;-0.79;77.24;102263.59;8639645;33;20201;-74
2022/02/27 04:56:45;;;;;;;12.30;5.73;;;;;;;-0.70;77.38;102267.97;8616413;33;20416;-73
2022/02/27 05:01:48;;;;;;;12.40;5.27;;;;;;;-0.60;76.97;102257.38;8637482;33;20139;-74
2022/02/27 05:06:53;;;;;;;8.37;5.37;;;;;;;-0.62;76.70;102261.78;8637733;33;20520;-74
2022/02/27 05:11:57;;;;;;;10.93;5.70;;;;;;;-0.64;76.42;102262.66;8638447;33;20500;-74
2022/02/27 05:17:00;;;;;;;8.90;5.23;;;;;;;-0.74;76.58;102267.09;8637965;33;20409;-74
2022/02/27 05:22:04;;;;;;;7.53;5.20;;;;;;;-0.78;76.42;102266.22;8637471;33;20531;-74
2022/02/27 05:27:08;;;;;;;8.00;5.30;;;;;;;-0.89;76.43;102264.53;8639774;33;20245;-74
2022/02/27 05:32:11;;;;;;;10.80;5.03;;;;;;;-0.95;76.53;102266.28;8647707;33;20495;-74
2022/02/27 05:37:14;;;;;;;8.77;5.30;;;;;;;-0.99;76.55;102269.84;8643536;33;20511;-73
2022/02/27 05:42:19;;;;;;;16.23;5.80;;;;;;;-1.02;76.41;102280.38;8612560;33;21200;-73
2022/02/27 05:47:24;;;;;;;12.47;5.90;;;;;;;-1.08;76.59;102288.31;8637533;33;20922;-73
2022/02/27 05:52:29;;;;;;;11.10;5.83;;;;;;;-1.05;77.32;102292.69;8639396;33;21039;-74
2022/02/27 05:57:33;;;;;;;11.10;6.03;;;;;;;-0.98;77.32;102292.69;8635499;33;20552;-72
2022/02/27 06:02:36;;;;;;;11.23;5.93;;;;;;;-0.94;77.16;102298.81;8631330;33;20175;-74
2022/02/27 06:07:40;;;;;;;13.23;5.83;;;;;;;-0.92;77.63;102290.91;8630265;33;20150;-72
2022/02/27 06:12:49;;;;;;;13.03;7.03;;;;;;;-0.86;77.59;102294.41;8628499;33;20558;-72
2022/02/27 06:17:52;;;;;;;10.83;6.47;;;;;;;-0.90;77.09;102297.94;8627957;33;20143;-73
2022/02/27 06:22:55;;;;;;;17.90;6.27;;;;;;;-0.90;76.94;102307.63;8628930;33;20197;-73
2022/02/27 06:27:59;;;;;;;14.73;6.40;;;;;;;-0.94;77.05;102309.38;8645796;28;20448;-72
2022/02/27 06:33:02;;;;;;;10.07;6.27;;;;;;;-0.93;76.87;102303.25;8697114;33;20413;-73
2022/02/27 06:38:05;;;;;;;12.03;6.63;;;;;;;-0.74;77.20;102304.94;8700432;33;20411;-72
2022/02/27 06:43:10;;;;;;;10.83;6.73;;;;;;;-0.45;76.51;102311.84;8700920;33;20866;-74
2022/02/27 06:48:14;;;;;;;11.70;6.57;;;;;;;-0.26;75.40;102314.41;8713054;33;20312;-75
2022/02/27 06:53:17;;;;;;;9.40;6.23;;;;;;;-0.06;74.50;102312.53;8714665;33;20149;-73
2022/02/27 06:58:21;;;;;;;12.00;6.43;;;;;;;0.28;73.96;102321.13;8708542;33;20257;-73
2022/02/27 07:03:25;;;;;;;13.00;6.67;;;;;;;0.55;72.76;102325.31;8701912;33;21031;-74
2022/02/27 07:08:28;;;;;;;15.87;6.33;;;;;;;0.87;71.53;102331.19;8702712;33;20548;-73
2022/02/27 07:13:33;;;;;;;14.45;7.28;;;;;;;1.14;70.61;102341.50;8697412;33;20905;-74
2022/02/27 07:18:36;;;;;;;15.23;6.80;;;;;;;1.33;69.74;102341.31;8699122;33;20231;-74
2022/02/27 07:23:39;;;;;;;17.80;7.68;;;;;;;1.56;68.94;102355.16;8698492;33;20485;-74
2022/02/27 07:28:43;;;;;;;14.65;6.80;;;;;;;1.94;68.24;102343.19;8695449;33;20459;-74
2022/02/27 07:33:47;;;;;;;9.52;6.40;;;;;;;2.14;67.40;102343.78;8693563;33;20483;-74
2022/02/27 07:38:50;;;;;;;10.82;6.90;;;;;;;2.29;66.77;102350.63;8692943;33;20653;-75
2022/02/27 07:43:54;;;;;;;9.05;6.45;;;;;;;2.52;66.24;102344.09;8691687;33;20182;-75
2022/02/27 07:48:58;;;;;;;16.58;6.22;;;;;;;2.79;65.86;102343.66;8678481;33;20422;-76
2022/02/27 07:54:04;;;;;;;12.73;6.72;;;;;;;3.10;65.14;102339.56;8690763;33;20417;-72
2022/02/27 07:59:09;;;;;;;12.48;6.15;;;;;;;3.23;64.50;102349.06;8692684;33;20446;-76
2022/02/27 08:04:18;;;;;;;17.35;6.88;;;;;;;3.51;64.23;102341.41;8692585;33;20142;-74
2022/02/27 08:09:21;;;;;;;10.15;6.05;;;;;;;3.75;63.01;102340.03;8683901;33;20304;-73
2022/02/27 08:14:26;;;;;;;12.43;5.80;;;;;;;4.07;62.66;102347.31;8686480;33;20415;-74
2022/02/27 08:19:30;;;;;;;8.40;5.50;;;;;;;4.15;61.90;102347.13;8687093;33;20426;-75
2022/02/27 08:24:32;;;;;;;8.52;5.35;;;;;;;4.56;61.12;102342.63;8695625;33;20510;-75
2022/02/27 08:29:37;;;;;;;13.57;6.75;;;;;;;4.97;60.63;102356.66;8706696;33;20432;-75
2022/02/27 08:34:40;;;;;;;7.97;5.82;;;;;;;4.55;59.04;102344.41;8703354;33;20627;-73
2022/02/27 08:39:43;;;;;;;14.57;6.22;;;;;;;4.20;61.53;102357.66;8697221;33;20861;-75
2022/02/27 08:44:48;;;;;;;9.23;5.57;;;;;;;4.30;60.62;102354.75;8668412;33;20166;-72
2022/02/27 08:49:51;;;;;;;14.88;7.22;;;;;;;4.47;60.94;102351.72;8692085;33;20410;-73
2022/02/27 08:54:56;;;;;;;11.27;5.68;;;;;;;4.43;60.43;102351.81;8689932;33;21008;-74
2022/02/27 09:00:00;;;;;;;14.02;6.60;;;;;;;4.44;61.43;102340.25;8690786;33;20216;-75
2022/02/27 09:05:05;;;;;;;10.65;6.70;;;;;;;4.52;60.48;102330.28;8695777;33;20300;-73
2022/02/27 09:10:12;;;;;;;14.05;7.28;;;;;;;4.75;59.62;102327.94;8696607;33;20743;-73
2022/02/27 09:15:16;;;;;;;15.35;6.75;;;;;;;4.98;59.42;102321.13;8695330;33;20523;-73
2022/02/27 09:20:20;;;;;;;10.45;6.88;;;;;;;4.67;59.28;102315.72;8700507;33;20403;-74
2022/02/27 09:25:25;;;;;;;13.73;6.85;;;;;;;5.12;58.52;102323.44;8702104;33;20149;-74
2022/02/27 09:36:34;;;;;;;13.65;6.28;;;;;;;5.96;56.21;102329.00;8883981;29;20140;-73
2022/02/27 09:41:37;;;;;;;14.70;6.18;;;;;;;5.68;55.72;102321.81;8305480;34;20446;-73
2022/02/27 09:46:41;;;;;;;11.07;6.22;;;;;;;6.14;55.57;102316.84;8303488;34;20440;-73
2022/02/27 09:51:46;;;;;;;10.55;6.10;;;;;;;6.50;54.55;102320.16;8303072;34;20443;-72
2022/02/27 09:56:49;;;;;;;9.75;5.53;;;;;;;6.57;55.00;102323.47;8303145;34;20179;-72
2022/02/27 10:02:01;;;;;;;12.30;5.60;;;;;;;6.42;53.91;102315.97;8304711;34;20458;-73
2022/02/27 10:07:10;;;;;;;12.70;5.85;;;;;;;7.29;53.92;102315.63;8295992;34;20484;-73
2022/02/27 10:12:18;;;;;;;10.35;5.47;;;;;;;7.14;52.65;102310.84;8293144;34;20439;-73
2022/02/27 10:17:30;;;;;;;11.93;5.30;;;;;;;7.28;52.24;102306.75;8292121;34;20206;-73
2022/02/27 10:22:36;;;;;;;10.32;5.43;;;;;;;7.68;51.02;102310.63;8296734;34;20140;-73
2022/02/27 10:27:45;;;;;;;8.13;4.80;;;;;;;7.84;50.17;102304.66;8293704;34;20287;-72
2022/02/27 10:32:51;;;;;;;7.95;5.35;;;;;;;8.04;51.31;102294.03;8295749;34;20593;-73
2022/02/27 10:37:56;;;;;;;11.10;5.85;;;;;;;8.54;49.52;102298.28;8292050;34;20529;-73
2022/02/27 10:43:00;;;;;;;9.80;5.03;;;;;;;8.94;49.62;102288.50;8947704;28;20242;-74
2022/02/27 10:48:11;;;;;;;8.55;4.63;;;;;;;9.03;48.57;102298.84;8238695;34;20255;-74
2022/02/27 10:53:16;;;;;;;10.65;4.60;;;;;;;8.51;46.52;102285.03;8238229;34;20578;-75
2022/02/27 10:58:20;;;;;;;9.40;4.57;;;;;;;8.64;47.34;102288.94;8238943;34;20622;-74
2022/02/27 11:03:24;;;;;;;9.45;4.75;;;;;;;9.46;45.99;102279.00;8238720;34;20236;-72
2022/02/27 11:08:29;;;;;;;9.32;4.65;;;;;;;9.46;nan;102288.84;8243470;34;20152;-73
2022/02/27 11:13:32;;;;;;;7.93;3.90;;;;;;;8.92;44.12;102277.88;8240507;34;20152;-72
2022/02/27 11:18:36;;;;;;;11.05;5.05;;;;;;;9.05;42.95;102278.19;8249024;34;20482;-72
2022/02/27 11:23:42;;;;;;;11.00;3.92;;;;;;;9.06;42.30;102267.41;8245742;34;20431;-71
2022/02/27 11:28:46;;;;;;;8.23;4.55;;;;;;;9.78;43.43;102248.91;8242275;34;20442;-73
2022/02/27 11:33:51;;;;;;;6.43;4.00;;;;;;;10.33;40.49;102257.81;8243942;34;20435;-74
2022/02/27 11:39:05;;;;;;;7.47;4.22;;;;;;;11.39;39.28;102246.03;8240055;34;20359;-73
2022/02/27 11:44:14;;;;;;;7.15;3.25;;;;;;;11.04;37.50;102243.41;8242084;34;20528;-72
2022/02/27 11:49:19;;;;;;;7.05;3.97;;;;;;;10.63;39.01;102246.44;8247559;34;20449;-73
2022/02/27 11:54:27;;;;;;;7.22;3.97;;;;;;;11.08;38.12;102231.53;8262305;34;20541;-73
2022/02/27 12:00:02;;;;;;;6.55;3.38;;;;;;;11.34;37.93;102229.28;8248178;34;20155;-72
2022/02/27 12:05:08;;;;;;;6.35;3.90;;;;;;;11.66;37.28;102220.28;8246133;34;20168;-72
2022/02/27 12:10:13;;;;;;;6.45;3.92;;;;;;;11.81;37.90;102213.13;8243315;34;20428;-71
2022/02/27 12:15:23;;;;;;;7.93;3.53;;;;;;;11.72;37.14;102201.06;8241996;34;20141;-72
2022/02/27 12:20:53;;;;;;;6.05;4.13;;;;;;;12.48;36.41;102193.97;8246958;34;20160;-73
2022/02/27 12:26:03;;;;;;;5.25;3.45;;;;;;;12.03;35.78;102190.34;8246757;35;20534;-73
2022/02/27 12:31:06;;;;;;;4.47;3.13;;;;;;;11.94;35.63;102194.44;8244004;35;20243;-72
2022/02/27 12:36:09;;;;;;;5.93;3.70;;;;;;;12.77;35.42;102186.81;8249125;34;20160;-73
2022/02/27 12:41:18;;;;;;;5.68;3.53;;;;;;;12.02;35.97;102197.56;8253595;34;20479;-72
2022/02/27 12:46:22;;;;;;;6.68;3.80;;;;;;;12.79;34.91;102198.38;8255233;34;20488;-72
2022/02/27 12:51:26;;;;;;;4.78;3.08;;;;;;;12.34;34.72;102193.00;8255137;34;21016;-72
2022/02/27 12:56:31;;;;;;;4.13;2.67;;;;;;;12.45;33.68;102191.47;8255632;34;20442;-72
2022/02/27 13:01:37;;;;;;;3.45;2.83;;;;;;;11.99;33.36;102202.28;8259292;34;20574;-72
2022/02/27 13:06:40;;;;;;;9.43;5.10;;;;;;;11.92;34.34;102197.22;8257916;34;20493;-72
2022/02/27 13:11:47;;;;;;;13.20;6.90;;;;;;;11.55;34.15;102184.16;8214738;35;20598;-73
2022/02/27 13:16:52;;;;;;;8.38;4.32;;;;;;;11.54;34.14;102190.47;8216879;35;20935;-73
2022/02/27 13:21:55;;;;;;;7.78;4.18;;;;;;;11.83;33.65;102194.22;8219239;35;20584;-73
2022/02/27 13:27:02;;;;;;;21.13;10.85;;;;;;;11.86;34.32;102192.19;8211316;35;20498;-73
2022/02/27 13:32:06;;;;;;;20.10;12.67;;;;;;;12.63;34.58;102181.41;8201423;35;20506;-73
2022/02/27 13:37:09;;;;;;;13.75;8.57;;;;;;;12.82;33.99;102173.91;8203598;35;20430;-71
2022/02/27 13:42:21;;;;;;;6.45;3.47;;;;;;;14.13;31.84;102174.44;8204637;35;20446;-72
2022/02/27 13:47:30;;;;;;;16.10;9.82;;;;;;;14.26;31.47;102159.13;8198462;35;20248;-71
2022/02/27 13:52:36;;;;;;;9.33;5.37;;;;;;;13.16;32.46;102158.28;8199135;35;20250;-73
2022/02/27 13:57:40;;;;;;;8.27;5.03;;;;;;;12.92;32.22;102164.28;8195937;35;20178;-73
2022/02/27 14:02:53;;;;;;;7.40;5.55;;;;;;;13.61;32.37;102154.47;8194373;35;20157;-73
2022/02/27 14:07:56;;;;;;;8.35;4.50;;;;;;;13.63;32.87;102152.53;8192919;35;20156;-73
2022/02/27 14:13:05;;;;;;;5.22;3.60;;;;;;;13.85;32.26;102151.09;8192162;35;20893;-73
2022/02/27 14:18:24;;;;;;;9.60;4.18;;;;;;;12.70;33.54;102151.28;8192951;35;20562;-73
2022/02/27 14:23:30;;;;;;;11.07;4.30;;;;;;;13.12;34.01;102141.44;8189891;35;20552;-73
2022/02/27 14:28:50;;;;;;;7.47;4.40;;;;;;;12.26;35.04;102135.97;8191354;35;20534;-73
2022/02/27 14:33:59;;;;;;;7.50;3.88;;;;;;;11.79;36.32;102138.78;8192072;35;20197;-73
2022/02/27 14:39:03;;;;;;;10.15;6.15;;;;;;;11.34;37.20;102140.47;8191908;35;20145;-73
2022/02/27 14:44:07;;;;;;;7.93;4.43;;;;;;;10.99;37.86;102137.88;8190063;35;20153;-73
2022/02/27 14:49:10;;;;;;;6.88;4.60;;;;;;;10.42;38.80;102140.06;8191665;35;20439;-73
2022/02/27 14:54:14;;;;;;;7.85;5.15;;;;;;;10.28;39.50;102138.13;8191406;35;20956;-73
2022/02/27 14:59:18;;;;;;;9.68;5.20;;;;;;;9.82;39.42;102125.22;8190665;35;21012;-72
2022/02/27 15:04:21;;;;;;;10.68;5.40;;;;;;;9.56;40.40;102125.63;8189543;35;20150;-73
2022/02/27 15:09:24;;;;;;;8.80;5.07;;;;;;;9.63;40.16;102127.06;8184854;35;20363;-72
2022/02/27 15:14:28;;;;;;;6.38;4.20;;;;;;;9.88;39.77;102124.94;8183680;35;20448;-72
2022/02/27 15:19:32;;;;;;;7.10;4.28;;;;;;;9.59;39.69;102118.28;8184368;35;20544;-73
2022/02/27 15:24:36;;;;;;;7.50;3.85;;;;;;;9.67;39.69;102121.47;8189947;35;20265;-73
2022/02/27 15:29:40;;;;;;;5.72;3.33;;;;;;;9.61;38.85;102110.19;8196204;35;20157;-73
2022/02/27 15:34:44;;;;;;;8.40;4.77;;;;;;;9.41;38.72;102114.72;8192797;35;20575;-72
2022/02/27 15:39:47;;;;;;;7.30;4.40;;;;;;;9.46;38.38;102109.09;8205313;34;20156;-73
2022/02/27 15:44:53;;;;;;;6.18;4.28;;;;;;;8.95;38.95;102108.00;8222574;34;20505;-72
2022/02/27 15:49:56;;;;;;;7.45;5.22;;;;;;;8.95;39.98;102106.19;8245759;34;20301;-72
2022/02/27 15:54:59;;;;;;;7.95;4.20;;;;;;;8.45;39.61;102093.28;8250257;34;20167;-73
2022/02/27 16:00:06;;;;;;;7.13;3.63;;;;;;;7.90;41.10;102098.38;8248702;34;20268;-73
2022/02/27 16:05:16;;;;;;;6.43;4.13;;;;;;;7.42;42.01;102110.16;8250340;34;20133;-73
2022/02/27 16:10:21;;;;;;;8.27;4.07;;;;;;;7.08;42.89;102091.94;8253024;34;20148;-73
2022/02/27 16:15:26;;;;;;;6.35;4.85;;;;;;;7.34;42.85;102102.44;8248012;34;20245;-73
2022/02/27 16:20:29;;;;;;;7.78;3.75;;;;;;;7.27;42.61;102095.63;8248911;34;20205;-73
2022/02/27 16:25:32;;;;;;;6.68;4.43;;;;;;;7.56;43.34;102101.56;8249052;34;20212;-73
2022/02/27 16:30:36;;;;;;;8.57;4.55;;;;;;;7.26;42.62;102105.41;8248745;35;20145;-73
2022/02/27 16:35:40;;;;;;;8.98;4.40;;;;;;;7.24;42.86;102111.75;8247820;35;20535;-73
2022/02/27 16:40:43;;;;;;;7.30;4.82;;;;;;;6.96;43.73;102115.50;8253629;35;20149;-73
2022/02/27 16:45:47;;;;;;;12.25;5.53;;;;;;;6.39;45.03;102104.25;8261234;35;20223;-73
2022/02/27 16:50:52;;;;;;;9.23;4.80;;;;;;;6.27;45.72;102096.69;8261402;34;20479;-73
2022/02/27 16:55:55;;;;;;;8.15;4.30;;;;;;;5.76;45.80;102100.25;8263911;35;20705;-74
2022/02/27 17:01:01;;;;;;;9.73;5.80;;;;;;;5.68;47.15;102096.97;8266639;35;20300;-74
2022/02/27 17:06:05;;;;;;;7.57;4.93;;;;;;;5.70;46.09;102105.75;8269950;34;20638;-72
2022/02/27 17:11:08;;;;;;;8.10;4.65;;;;;;;5.63;46.46;102105.09;8270809;35;20440;-73
2022/02/27 17:16:15;;;;;;;7.82;4.88;;;;;;;5.35;47.27;102112.25;8267620;35;20545;-73
2022/02/27 17:21:18;;;;;;;8.60;5.20;;;;;;;5.22;47.91;102109.09;8261675;34;20428;-72
2022/02/27 17:26:22;;;;;;;8.25;4.70;;;;;;;4.88;48.57;102117.19;8266891;34;20438;-75
2022/02/27 17:31:26;;;;;;;12.52;7.18;;;;;;;5.04;48.58;102118.53;8265643;34;20216;-73
2022/02/27 17:36:29;;;;;;;22.07;12.77;;;;;;;4.86;48.79;102114.59;8253306;34;20454;-74
2022/02/27 17:41:34;;;;;;;8.57;6.43;;;;;;;4.88;49.15;102114.53;8260246;34;20425;-74
2022/02/27 17:46:38;;;;;;;9.55;5.93;;;;;;;4.68;49.50;102118.66;8254927;34;20641;-74
2022/02/27 17:51:42;;;;;;;19.73;9.88;;;;;;;4.59;50.03;102109.16;8249828;34;20544;-74
2022/02/27 17:56:45;;;;;;;12.30;7.03;;;;;;;4.46;50.60;102114.88;8248394;34;20952;-74
2022/02/27 18:01:50;;;;;;;10.77;5.85;;;;;;;4.44;50.58;102106.91;8248978;34;20908;-73
2022/02/27 18:06:54;;;;;;;14.95;8.48;;;;;;;4.38;50.90;102113.28;8250932;34;20231;-74
2022/02/27 18:11:57;;;;;;;13.23;7.38;;;;;;;4.27;51.44;102115.38;8250344;34;20450;-74
2022/02/27 18:17:02;;;;;;;57.47;22.90;;;;;;;4.18;51.54;102108.50;8251425;34;20594;-73
2022/02/27 18:22:05;;;;;;;12.55;7.15;;;;;;;4.09;52.09;102105.25;8251238;34;21023;-74
2022/02/27 18:27:09;;;;;;;12.38;7.90;;;;;;;4.02;52.28;102107.16;8251030;34;20495;-73
2022/02/27 18:32:13;;;;;;;9.60;7.32;;;;;;;4.02;52.40;102093.88;8250337;34;20153;-74
2022/02/27 18:37:16;;;;;;;15.93;8.13;;;;;;;4.03;52.66;102103.63;8253945;34;20434;-74
2022/02/27 18:42:19;;;;;;;11.18;6.30;;;;;;;4.06;52.55;102099.97;8232682;34;20448;-74
2022/02/27 18:47:24;;;;;;;8.45;5.90;;;;;;;3.89;52.81;102105.75;8237259;34;20439;-75
2022/02/27 18:52:27;;;;;;;10.45;7.50;;;;;;;3.78;52.98;102110.47;8194730;34;20506;-74
2022/02/27 18:57:32;;;;;;;12.73;7.80;;;;;;;3.72;53.22;102100.84;8194366;35;20593;-74
2022/02/27 19:02:37;;;;;;;11.68;7.13;;;;;;;3.71;53.45;102102.66;8193101;35;20448;-73
2022/02/27 19:07:42;;;;;;;10.10;5.90;;;;;;;3.63;53.74;102103.75;8194215;35;20149;-74
2022/02/27 19:12:49;;;;;;;13.68;8.30;;;;;;;3.58;53.78;102111.81;8192551;35;20162;-74
2022/02/27 19:17:53;;;;;;;20.90;13.15;;;;;;;3.51;53.84;102104.91;8193191;35;20148;-74
2022/02/27 19:22:56;;;;;;;22.92;14.32;;;;;;;3.46;53.72;102104.16;8194731;35;20437;-73
2022/02/27 19:27:59;;;;;;;16.25;8.90;;;;;;;3.27;54.17;102109.03;8198174;35;20592;-74
2022/02/27 19:33:04;;;;;;;11.32;6.82;;;;;;;3.24;54.02;102101.13;8195951;35;20896;-73
2022/02/27 19:38:08;;;;;;;10.73;6.90;;;;;;;3.18;54.41;102096.84;8187527;35;20534;-73
2022/02/27 19:43:11;;;;;;;15.98;8.82;;;;;;;3.13;54.55;102105.84;8204002;34;20502;-74
2022/02/27 19:48:16;;;;;;;9.50;7.18;;;;;;;3.06;54.66;102102.41;8235441;34;20601;-74
2022/02/27 19:53:19;;;;;;;16.58;7.80;;;;;;;2.98;54.66;102102.59;8244090;34;20137;-71
2022/02/27 19:58:22;;;;;;;17.05;8.05;;;;;;;2.96;54.88;102106.16;8245364;34;20712;-74
2022/02/27 20:03:26;;;;;;;10.95;6.70;;;;;;;2.88;54.74;102102.81;8219989;34;20252;-72
2022/02/27 20:08:29;;;;;;;13.52;7.25;;;;;;;2.84;55.15;102110.84;8243038;34;20460;-73
2022/02/27 20:13:33;;;;;;;12.57;7.65;;;;;;;2.78;55.71;102104.81;8244204;34;20494;-73
2022/02/27 20:18:39;;;;;;;13.93;8.07;;;;;;;2.75;56.10;102111.06;8248734;34;20532;-74
2022/02/27 20:23:43;;;;;;;14.23;7.63;;;;;;;2.70;56.22;102107.63;8248412;34;20132;-73
2022/02/27 20:28:46;;;;;;;12.82;7.60;;;;;;;2.64;56.47;102113.06;8261375;35;20436;-74
2022/02/27 20:33:52;;;;;;;15.55;8.15;;;;;;;2.69;56.71;102108.53;8258467;35;20534;-73
2022/02/27 20:38:55;;;;;;;12.38;7.35;;;;;;;2.61;56.75;102107.81;8263042;34;20247;-73
2022/02/27 20:43:58;;;;;;;10.63;6.75;;;;;;;2.60;57.14;102103.38;8264952;35;20153;-72
2022/02/27 20:49:03;;;;;;;16.08;8.18;;;;;;;2.48;57.88;102109.78;8265630;35;20511;-73
2022/02/27 20:54:07;;;;;;;13.55;8.15;;;;;;;2.44;58.28;102101.91;8266075;35;20588;-73
2022/02/27 20:59:10;;;;;;;14.30;7.85;;;;;;;2.27;58.74;102097.81;8266595;34;20145;-74
2022/02/27 21:04:15;;;;;;;13.45;8.85;;;;;;;2.20;59.22;102090.03;8265190;34;20562;-73
2022/02/27 21:09:18;;;;;;;16.10;8.82;;;;;;;2.26;59.93;102085.47;8264427;34;20153;-73
2022/02/27 21:14:21;;;;;;;14.65;9.18;;;;;;;2.29;59.96;102072.16;8263374;34;20153;-73
2022/02/27 21:20:15;;;;;;;18.30;9.77;;;;;;;2.06;60.96;102064.66;8953203;29;20299;-73
2022/02/27 21:25:18;;;;;;;16.13;8.88;;;;;;;2.03;61.43;102070.00;8295214;34;20443;-74
2022/02/27 21:30:21;;;;;;;12.82;8.20;;;;;;;1.98;61.54;102068.34;8277606;34;20468;-73
2022/02/27 21:35:27;;;;;;;19.10;11.00;;;;;;;1.92;62.07;102061.34;8225230;34;20479;-73
2022/02/27 21:40:30;;;;;;;21.40;11.73;;;;;;;1.84;62.68;102066.81;8225034;34;20564;-74
2022/02/27 21:45:33;;;;;;;17.10;10.18;;;;;;;1.87;62.65;102056.16;8224202;34;20765;-74
2022/02/27 21:50:38;;;;;;;19.45;10.98;;;;;;;1.89;62.53;102054.38;8221779;34;20660;-75
2022/02/27 21:55:41;;;;;;;21.02;12.38;;;;;;;2.01;62.33;102058.56;8222328;34;20190;-74
2022/02/27 22:00:44;;;;;;;18.42;11.50;;;;;;;1.94;62.63;102057.78;8216951;34;20356;-74
2022/02/27 22:05:49;;;;;;;20.98;11.88;;;;;;;1.83;63.34;102061.53;8197807;35;20445;-75
2022/02/27 22:10:52;;;;;;;21.52;11.55;;;;;;;1.68;63.49;102065.34;8196281;35;20548;-74
2022/02/27 22:15:57;;;;;;;25.47;11.97;;;;;;;1.68;63.46;102071.50;8197518;35;20146;-75
2022/02/27 22:21:02;;;;;;;21.67;12.35;;;;;;;1.69;63.49;102064.41;8217674;34;20445;-74
2022/02/27 22:26:05;;;;;;;20.43;11.23;;;;;;;1.61;63.99;102061.91;8266742;34;20231;-74
2022/02/27 22:31:08;;;;;;;21.80;12.70;;;;;;;1.55;64.32;102069.09;8246996;34;20258;-73
2022/02/27 22:36:13;;;;;;;22.00;12.30;;;;;;;1.54;64.23;102067.31;8249042;34;20474;-73
2022/02/27 22:41:16;;;;;;;19.75;11.02;;;;;;;1.45;64.43;102063.06;8250602;34;20235;-73
2022/02/27 22:46:19;;;;;;;21.50;11.73;;;;;;;1.38;64.81;102061.41;8247138;34;20292;-72
2022/02/27 22:51:24;;;;;;;19.85;12.50;;;;;;;1.37;64.92;102071.16;8246468;34;20699;-72
2022/02/27 22:56:27;;;;;;;21.40;12.02;;;;;;;1.36;64.98;102076.44;8250160;34;20443;-74
2022/02/27 23:01:31;;;;;;;20.05;11.05;;;;;;;1.31;64.86;102068.56;8247138;34;21021;-74
2022/02/27 23:06:35;;;;;;;23.63;13.38;;;;;;;1.24;64.87;102077.53;8247614;34;20558;-74
2022/02/27 23:11:39;;;;;;;22.42;12.35;;;;;;;1.30;65.20;102071.25;8247456;34;20428;-74
2022/02/27 23:16:42;;;;;;;19.83;10.33;;;;;;;1.24;65.05;102074.88;8247777;34;20229;-74
2022/02/27 23:21:46;;;;;;;23.90;12.23;;;;;;;1.26;65.06;102068.66;8247190;34;20156;-72
2022/02/27 23:26:49;;;;;;;19.17;11.40;;;;;;;1.27;64.86;102075.69;8247192;34;20455;-74
2022/02/27 23:31:52;;;;;;;21.20;12.23;;;;;;;1.31;65.01;102079.16;8267863;34;20462;-75
2022/02/27 23:36:57;;;;;;;22.92;11.38;;;;;;;1.26;64.67;102078.34;8248697;34;20941;-75